MST,Max TemperatureF,Mean TemperatureF,Min TemperatureF,Max Dew PointF,MeanDew PointF,Min DewpointF,Max Humidity, Mean Humidity, Min Humidity, Max Sea Level PressureIn, Mean Sea Level PressureIn, Min Sea Level PressureIn, Max VisibilityMiles, Mean VisibilityMiles, Min VisibilityMiles, Max Wind SpeedMPH, Mean Wind SpeedMPH, Max Gust SpeedMPH,PrecipitationIn, CloudCover, Events, WindDirDegrees
2011-11-1,45,39,33,34,30,23,100,73,49,30.63,30.16,29.94,10,9,3,26,15,34,0.00,7,Rain-Snow,336
2011-11-2,44,34,23,36,22,12,100,65,28,30.52,30.43,30.30,10,10,10,17,12,24,0.00,2,Rain-Snow,333
2011-11-3,56,38,20,21,15,8,69,45,15,30.31,30.05,29.79,10,10,10,30,12,38,0.00,1,,179
2011-11-4,70,49,30,31,26,20,79,50,18,29.96,29.71,29.55,10,10,10,18,10,24,0.00,0,,164
2011-11-5,47,40,33,32,27,23,82,63,41,29.53,29.41,29.29,10,10,10,32,13,38,0.00,1,,328
2011-11-6,45,34,22,24,18,14,72,54,30,30.08,29.82,29.56,10,10,10,21,12,25,0.00,0,,288
2011-11-7,45,32,20,26,19,12,79,58,29,30.24,30.17,30.12,10,10,10,17,9,24,0.00,0,,194
2011-11-8,48,36,23,26,20,14,89,59,28,30.35,30.21,30.12,10,10,10,21,8,29,0.06,1,,313
2011-11-9,45,34,23,30,22,14,94,63,31,30.48,30.40,30.32,10,9,1,22,12,29,0.00,3,Rain-Snow,324
2011-11-10,54,38,21,19,16,13,73,45,22,30.34,30.08,29.82,10,10,10,10,5,,0.00,0,,227
2011-11-11,64,48,31,14,11,6,44,27,10,29.84,29.69,29.43,10,10,10,13,7,17,0.00,0,,254
2011-11-12,57,48,36,36,20,10,93,39,21,29.40,29.31,29.26,10,10,10,25,11,34,0.00,4,Rain,307
2011-11-13,52,41,30,36,26,14,94,66,23,29.53,29.41,29.33,10,10,10,29,18,40,0.01,5,Rain,296
2011-11-14,46,36,25,29,23,18,89,62,39,29.64,29.56,29.48,10,10,10,18,6,28,0.00,2,,302
2011-11-15,35,28,21,28,15,2,87,57,28,30.16,29.92,29.64,10,9,3,26,15,38,0.00,3,Snow,320
2011-11-16,35,26,16,16,4,-2,69,45,22,30.34,30.28,30.16,10,10,3,21,10,28,0.00,1,Snow,288
2011-11-17,52,32,11,23,11,-2,59,40,25,30.21,29.83,29.58,10,10,10,24,6,40,0.00,3,,194
2011-11-18,37,28,18,28,23,18,100,90,49,29.88,29.80,29.62,10,3,1,20,11,25,0.00,7,Rain-Snow,7
2011-11-19,17,9,1,18,6,-2,100,87,78,30.29,30.10,29.83,10,3,0,13,8,,0.00,6,Fog-Snow,6
2011-11-20,20,9,-2,16,5,-8,92,86,73,30.26,30.21,30.11,10,8,2,13,6,,0.00,3,Snow,187
2011-11-21,27,18,9,23,14,6,90,83,76,30.20,30.10,30.02,10,10,10,12,3,,0.04,1,,327
2011-11-22,40,31,22,29,23,16,84,69,56,30.12,30.05,29.96,10,10,10,12,5,,0.07,1,,254
2011-11-23,55,42,33,30,26,20,68,49,25,30.08,29.95,29.77,10,10,10,12,8,,0.00,0,,231
2011-11-24,55,48,41,32,26,22,57,44,29,29.78,29.72,29.64,10,10,10,12,5,,0.00,2,,152
2011-11-25,55,46,36,36,30,18,93,65,31,30.06,29.80,29.60,10,10,10,38,14,50,0.01,3,Rain,327
2011-11-26,38,30,21,25,13,4,70,48,26,30.55,30.41,30.08,10,10,10,43,31,53,0.02,0,,316
2011-11-27,57,39,21,26,19,7,66,48,28,30.44,30.21,29.95,10,10,10,10,6,,0.00,0,,226
2011-11-28,52,40,27,31,25,22,88,58,32,30.42,30.22,29.92,10,10,10,23,9,38,0.00,2,,315
2011-11-29,50,40,29,31,27,23,88,67,45,30.36,30.20,29.94,10,10,10,10,5,,0.00,3,,185
2011-11-30,46,37,28,31,28,24,100,80,45,30.34,30.08,29.83,10,6,2,23,9,26,0.01,8,Rain-Snow,8